Language: 


Des rapports , des résumés tant et plus, au choix de chacun....


Données statistiques de la station
Quotidien Rapport Janvier 21, 2018 Unités:  Métrique    Anglais   les deux
« Précédent Jour
Suivant Jour »
Quotidien Hebdomadaire Mensuel Annuel Actuel
  Haut: Bas: Moyen:
Température: -17.8 °C -17.1 °C -16.2 °C
Pt de rosée: -17.8 °C -17.2 °C -16.2 °C
Humidité: Humidity % 94 % 98 %
Vitesse du vent: 0 km/h 0 km/h 9 km/h
Rafales: 0 km/h - -
Vent:- - SSW
Pression: 0 hPa 34063.2 hPa -
Précipitation: 381 mm    
Historical Graphs
 
 
Données statistiques pour Janvier 21, 2018
Heure Température Point de rosée Pression Vent Vitesse du vent Refales Humidité Pluie (taux horaire)
-17.8 °C -17.8 °C 0 hPa Calm     Humidity % 0 mm
00:03 -15.9 °C -16.1 °C 34063.2 hPa Calm     98 % 0 mm
00:08 -15.9 °C -16.1 °C 34063.2 hPa Calm   3.4 km/h 98 % 0 mm
00:13 -15.9 °C -16.1 °C 34063.2 hPa Calm   3.4 km/h 98 % 0 mm
00:18 -15.9 °C -16.1 °C 34097 hPa Calm     98 % 0 mm
00:23 -15.9 °C -16.1 °C 34097 hPa Calm   3.4 km/h 98 % 0 mm
00:28 -15.9 °C -16.1 °C 34097 hPa Calm   3.4 km/h 98 % 0 mm
00:33 -15.9 °C -16.1 °C 34097 hPa Calm     98 % 0 mm
00:38 -15.9 °C -16.1 °C 34097 hPa NW 6.9 km/h 6.9 km/h 98 % 0 mm
00:43 -15.9 °C -16.1 °C 34097 hPa West 2.9 km/h 6.9 km/h 98 % 0 mm
00:48 -15.8 °C -15.6 °C 34063.2 hPa WNW 4.2 km/h 9.3 km/h 98 % 0 mm
00:53 -15.8 °C -15.6 °C 34063.2 hPa NNW 8 km/h 9.3 km/h 98 % 0 mm
00:58 -15.7 °C -15.6 °C 34063.2 hPa Calm   8 km/h 98 % 0 mm
01:03 -15.7 °C -15.6 °C 34130.9 hPa North 10.3 km/h 14 km/h 98 % 7.62 mm
01:08 -15.7 °C -15.6 °C 34130.9 hPa WNW 4.2 km/h 14 km/h 98 % 7.62 mm
01:13 -15.7 °C -15.6 °C 34130.9 hPa Calm   10.3 km/h 98 % 7.62 mm
01:18 -15.7 °C -15.6 °C 34130.9 hPa Calm   9.8 km/h 98 % 7.62 mm
01:23 -15.6 °C -15.6 °C 34130.9 hPa Calm   6.4 km/h 98 % 7.62 mm
01:28 -15.7 °C -15.6 °C 34130.9 hPa West 2.3 km/h 2.9 km/h 98 % 7.62 mm
01:33 -15.7 °C -15.6 °C 34164.7 hPa Calm   4.2 km/h 98 % 7.62 mm
01:38 -15.7 °C -15.6 °C 34164.7 hPa Calm   4.2 km/h 98 % 7.62 mm
01:43 -15.7 °C -15.6 °C 34164.7 hPa NW 3.4 km/h 8 km/h 98 % 7.62 mm
01:48 -15.7 °C -15.6 °C 34164.7 hPa Calm   8.9 km/h 98 % 7.62 mm
01:53 -15.8 °C -15.6 °C 34164.7 hPa NW 2.9 km/h 11.1 km/h 98 % 7.62 mm
01:58 -15.8 °C -15.6 °C 34164.7 hPa Calm   11.1 km/h 98 % 7.62 mm
02:03 -15.8 °C -15.6 °C 34164.7 hPa Calm   8.9 km/h 98 % 0 mm
02:08 -15.8 °C -15.6 °C 34164.7 hPa NNW 9.8 km/h 11.1 km/h 98 % 0 mm
02:13 -15.8 °C -15.6 °C 34164.7 hPa Calm   12.2 km/h 98 % 0 mm
02:18 -15.9 °C -16.1 °C 34164.7 hPa NW 2.3 km/h 12.2 km/h 98 % 0 mm
02:23 -15.9 °C -16.1 °C 34164.7 hPa Calm   9.8 km/h 98 % 0 mm
02:28 -15.9 °C -16.1 °C 34164.7 hPa NW 6.9 km/h 10.3 km/h 98 % 0 mm
02:33 -15.9 °C -16.1 °C 34198.6 hPa Calm   10.3 km/h 98 % 0 mm
02:38 -16.1 °C -16.1 °C 34198.6 hPa Calm   8.9 km/h 98 % 0 mm
02:43 -16.1 °C -16.1 °C 34198.6 hPa Calm   6.9 km/h 98 % 0 mm
02:48 -16.1 °C -16.1 °C 34198.6 hPa WNW 5.1 km/h 8.9 km/h 98 % 0 mm
02:53 -16.2 °C -16.1 °C 34198.6 hPa Calm   8.9 km/h 98 % 0 mm
02:58 -16.2 °C -16.1 °C 34198.6 hPa Calm   6.9 km/h 98 % 0 mm
03:03 -16.2 °C -16.1 °C 34198.6 hPa West 6.4 km/h 9.8 km/h 98 % 0 mm
03:08 -16.2 °C -16.1 °C 34198.6 hPa West 7.6 km/h 10.3 km/h 98 % 0 mm
03:13 -16.3 °C -16.1 °C 34235.8 hPa Calm   10.3 km/h 98 % 0 mm
03:18 -16.3 °C -16.1 °C 34235.8 hPa Calm   9.8 km/h 98 % 0 mm
03:23 -16.3 °C -16.1 °C 34235.8 hPa West 8 km/h 9.8 km/h 98 % 0 mm
03:28 -16.3 °C -16.1 °C 34235.8 hPa Calm   8 km/h 98 % 0 mm
03:33 -16.4 °C -16.1 °C 34235.8 hPa Calm   8 km/h 98 % 0 mm
03:39 -16.4 °C -16.1 °C 34235.8 hPa Calm   6.9 km/h 98 % 0 mm
03:44 -16.5 °C -16.1 °C 34198.6 hPa Calm   10.3 km/h 98 % 0 mm
03:49 -16.6 °C -16.7 °C 34198.6 hPa West 8.9 km/h 10.3 km/h 98 % 0 mm
03:54 -16.6 °C -16.7 °C 34198.6 hPa West 2.3 km/h 10.3 km/h 98 % 0 mm
03:59 -16.6 °C -16.7 °C 34198.6 hPa Calm   10.3 km/h 98 % 0 mm
04:04 -16.6 °C -16.7 °C 34198.6 hPa West 9.8 km/h 10.3 km/h 98 % 0 mm
04:09 -16.6 °C -16.7 °C 34198.6 hPa Calm   12.7 km/h 98 % 0 mm
04:14 -16.6 °C -16.7 °C 34235.8 hPa Calm   12.7 km/h 98 % 0 mm
04:19 -16.6 °C -16.7 °C 34235.8 hPa West 4.2 km/h 6.4 km/h 98 % 0 mm
04:24 -16.7 °C -16.7 °C 34235.8 hPa Calm   7.6 km/h 98 % 0 mm
04:29 -16.7 °C -16.7 °C 34235.8 hPa Calm   7.6 km/h 98 % 0 mm
04:34 -16.7 °C -16.7 °C 34235.8 hPa Calm     98 % 0 mm
04:39 -16.7 °C -16.7 °C 34235.8 hPa West 9.8 km/h 9.8 km/h 98 % 0 mm
04:44 -16.7 °C -16.7 °C 34269.7 hPa West 8.9 km/h 12.2 km/h 98 % 0 mm
04:49 -16.7 °C -16.7 °C 34269.7 hPa Calm   12.2 km/h 98 % 0 mm
04:54 -16.7 °C -16.7 °C 34269.7 hPa West 8 km/h 11.1 km/h 98 % 0 mm
04:59 -16.7 °C -16.7 °C 34269.7 hPa WNW 2.9 km/h 11.1 km/h 98 % 0 mm
05:04 -16.7 °C -16.7 °C 34269.7 hPa Calm   7.6 km/h 98 % 0 mm
05:09 -16.7 °C -16.7 °C 34269.7 hPa Calm   6.9 km/h 98 % 0 mm
05:14 -16.7 °C -16.7 °C 34303.6 hPa Calm   4.2 km/h 98 % 0 mm
05:19 -16.7 °C -16.7 °C 34303.6 hPa Calm     98 % 0 mm
05:24 -16.8 °C -16.7 °C 34303.6 hPa Calm     98 % 0 mm
05:29 -16.8 °C -16.7 °C 34303.6 hPa Calm   4.2 km/h 98 % 0 mm
05:34 -16.9 °C -16.7 °C 34303.6 hPa WNW 8 km/h 8 km/h 98 % 0 mm
05:39 -16.9 °C -16.7 °C 34303.6 hPa Calm   8 km/h 98 % 0 mm
05:44 -16.9 °C -16.7 °C 34303.6 hPa Calm   8 km/h 98 % 0 mm
05:49 -17 °C -17.2 °C 34303.6 hPa Calm   6.9 km/h 98 % 0 mm
05:54 -17 °C -17.2 °C 34303.6 hPa Calm   6.9 km/h 98 % 0 mm
05:59 -17 °C -17.2 °C 34337.4 hPa Calm   5.1 km/h 98 % 0 mm
06:04 -17 °C -17.2 °C 34337.4 hPa Calm     98 % 0 mm
06:07 -17 °C -17.2 °C 34337.4 hPa Calm     98 % 0 mm
06:12 -17 °C -17.2 °C 34337.4 hPa Calm   6.4 km/h 98 % 7.62 mm
06:17 -17.1 °C -17.2 °C 34303.6 hPa Calm   6.4 km/h 98 % 7.62 mm
06:22 -17.1 °C -17.2 °C 34303.6 hPa Calm   4.2 km/h 98 % 7.62 mm
06:27 -17.1 °C -17.2 °C 34303.6 hPa WSW 10.3 km/h 10.3 km/h 98 % 7.62 mm
06:32 -17.1 °C -17.2 °C 34303.6 hPa WSW 10.3 km/h 12.7 km/h 98 % 7.62 mm
06:47 -16.9 °C -16.7 °C 34303.6 hPa Calm   11.1 km/h 98 % 7.62 mm
06:52 -16.9 °C -16.7 °C 34303.6 hPa Calm   10.3 km/h 98 % 7.62 mm
06:57 -16.9 °C -16.7 °C 34303.6 hPa West 3.4 km/h 8 km/h 98 % 7.62 mm
07:02 -16.9 °C -16.7 °C 34303.6 hPa Calm   8 km/h 98 % 7.62 mm
07:03 -16.9 °C -16.7 °C 34303.6 hPa Calm   8 km/h 98 % 7.62 mm
07:08 -16.9 °C -16.7 °C 34303.6 hPa West 5.6 km/h 9.8 km/h 98 % 0 mm
07:13 -16.9 °C -16.7 °C 34303.6 hPa Calm   9.8 km/h 98 % 0 mm
07:18 -16.8 °C -16.7 °C 34303.6 hPa West 3.4 km/h 6.4 km/h 98 % 0 mm
07:28 -16.8 °C -16.7 °C 34303.6 hPa West 10.3 km/h 10.3 km/h 98 % 0 mm
07:33 -16.8 °C -16.7 °C 34337.4 hPa West 6.9 km/h 10.3 km/h 98 % 0 mm
07:43 -16.8 °C -16.7 °C 34337.4 hPa Calm   10.3 km/h 98 % 0 mm
07:48 -16.9 °C -16.7 °C 34337.4 hPa West 9.3 km/h 9.8 km/h 98 % 0 mm
07:53 -16.8 °C -16.7 °C 34337.4 hPa West 5.1 km/h 10.3 km/h 98 % 0 mm
07:58 -16.8 °C -16.7 °C 34337.4 hPa Calm   10.3 km/h 98 % 0 mm
08:03 -16.9 °C -16.7 °C 34371.3 hPa Calm   9.3 km/h 98 % 0 mm
08:08 -17 °C -17.2 °C 34371.3 hPa Calm   10.3 km/h 98 % 0 mm
08:13 -17 °C -17.2 °C 34371.3 hPa Calm   10.3 km/h 98 % 0 mm
08:18 -17 °C -17.2 °C 34371.3 hPa Calm   9.3 km/h 98 % 0 mm
08:23 -17 °C -17.2 °C 34371.3 hPa WSW 9.8 km/h 11.1 km/h 98 % 0 mm
08:28 -17 °C -17.2 °C 34371.3 hPa Calm   11.1 km/h 98 % 0 mm
08:34 -16.9 °C -16.7 °C 34371.3 hPa Calm   11.1 km/h 98 % 0 mm
08:39 -16.9 °C -16.7 °C 34371.3 hPa Calm   9.8 km/h 98 % 0 mm
08:44 -16.9 °C -16.7 °C 34337.4 hPa Calm     98 % 0 mm
08:49 -16.9 °C -16.7 °C 34337.4 hPa Calm   11.1 km/h 98 % 0 mm
08:54 -16.8 °C -16.7 °C 34337.4 hPa WSW 9.8 km/h 11.1 km/h 98 % 0 mm
08:59 -16.8 °C -16.7 °C 34337.4 hPa West 10.3 km/h 12.2 km/h 98 % 0 mm
09:14 -16.7 °C -16.7 °C 34371.3 hPa WSW 9.3 km/h 11.1 km/h 98 % 0 mm
09:19 -16.7 °C -16.7 °C 34371.3 hPa Calm   11.1 km/h 98 % 0 mm
09:24 -16.7 °C -16.7 °C 34371.3 hPa Calm   11.1 km/h 98 % 0 mm
09:39 -16.6 °C -16.7 °C 34371.3 hPa Calm   10.3 km/h 98 % 0 mm
09:54 -16.6 °C -16.7 °C 34405.1 hPa Calm     98 % 0 mm
09:59 -16.5 °C -16.1 °C 34405.1 hPa Calm   11.1 km/h 98 % 0 mm
10:04 -16.4 °C -16.1 °C 34405.1 hPa WSW 8 km/h 11.1 km/h 98 % 0 mm
10:10 -16.4 °C -16.1 °C 34405.1 hPa Calm   11.1 km/h 98 % 0 mm
10:15 -16.4 °C -16.1 °C 34405.1 hPa Calm   11.1 km/h 98 % 0 mm
10:20 -16.3 °C -16.1 °C 34405.1 hPa West 8.9 km/h 12.7 km/h 98 % 0 mm
10:25 -16.3 °C -16.1 °C 34405.1 hPa WSW 8 km/h 15 km/h 98 % 0 mm
10:30 -16.3 °C -16.1 °C 34405.1 hPa Calm   15.6 km/h 98 % 0 mm
10:35 -16.2 °C -16.1 °C 34405.1 hPa Calm   15.6 km/h 98 % 0 mm
10:40 -16.2 °C -16.1 °C 34405.1 hPa WSW 9.8 km/h 15 km/h 98 % 0 mm
10:45 -16.1 °C -16.1 °C 34428.8 hPa WSW 11.1 km/h 15 km/h 98 % 0 mm
10:50 -16.1 °C -16.1 °C 34428.8 hPa WSW 6.9 km/h 15.6 km/h 98 % 0 mm
10:55 -16.1 °C -16.1 °C 34428.8 hPa Calm   16.3 km/h 98 % 0 mm
11:00 -16.1 °C -16.1 °C 34428.8 hPa WSW 16.3 km/h 18.7 km/h 98 % 0 mm
11:05 -16.1 °C -16.1 °C 34428.8 hPa West 15 km/h 19.6 km/h 98 % 0 mm
11:10 -16.1 °C -16.1 °C 34428.8 hPa WSW 11.1 km/h 19.6 km/h 98 % 0 mm
11:15 -16 °C -16.1 °C 34428.8 hPa West 12.2 km/h 16.9 km/h 98 % 0 mm
11:20 -15.9 °C -16.1 °C 34428.8 hPa SSW 11.1 km/h 15 km/h 98 % 0 mm
11:25 -15.9 °C -16.1 °C 34428.8 hPa WSW 6.4 km/h 15 km/h 98 % 0 mm
11:30 -15.9 °C -16.1 °C 34405.1 hPa Calm   15 km/h 98 % 0 mm
11:35 -15.9 °C -16.1 °C 34405.1 hPa WSW 9.3 km/h 14 km/h 98 % 0 mm
11:40 -15.8 °C -15.6 °C 34405.1 hPa WSW 12.2 km/h 14 km/h 98 % 0 mm
11:45 -15.8 °C -15.6 °C 34428.8 hPa WSW 3.4 km/h 15 km/h 98 % 0 mm
11:50 -15.8 °C -15.6 °C 34428.8 hPa WSW 2.9 km/h 15 km/h 98 % 0 mm
11:55 -15.8 °C -15.6 °C 34428.8 hPa WSW 11.1 km/h 16.9 km/h 98 % 0 mm
12:00 -15.7 °C -15.6 °C 34405.1 hPa WSW 16.3 km/h 16.9 km/h 98 % 0 mm
12:05 -15.7 °C -15.6 °C 34405.1 hPa Calm   16.3 km/h 98 % 0 mm
12:10 -15.7 °C -15.6 °C 34405.1 hPa Calm   16.3 km/h 98 % 0 mm
12:15 -15.7 °C -15.6 °C 34405.1 hPa Calm   14.5 km/h 98 % 0 mm
12:20 -15.7 °C -15.6 °C 34405.1 hPa Calm   14.5 km/h 98 % 0 mm
12:25 -15.6 °C -15.6 °C 34405.1 hPa South 5.1 km/h 11.6 km/h 98 % 0 mm
12:30 -15.6 °C -15.6 °C 34405.1 hPa SW 10.3 km/h 10.3 km/h 98 % 0 mm
12:35 -15.5 °C -15.6 °C 34405.1 hPa WSW 4.2 km/h 14.5 km/h 98 % 0 mm
12:40 -15.4 °C -15.6 °C 34405.1 hPa SW 2.9 km/h 14.5 km/h 98 % 0 mm
12:45 -15.4 °C -15.6 °C 34371.3 hPa South 7.6 km/h 10.3 km/h 98 % 0 mm
12:50 -15.4 °C -15.6 °C 34371.3 hPa SSW 15 km/h 16.9 km/h 98 % 0 mm
12:55 -15.3 °C -15.6 °C 34371.3 hPa SSW 14 km/h 16.9 km/h 98 % 0 mm
13:00 -15.3 °C -15.6 °C 34371.3 hPa WSW 12.2 km/h 16.9 km/h 98 % 0 mm
13:05 -15.3 °C -15 °C 34371.3 hPa SSW 20.3 km/h 20.3 km/h 98 % 0 mm
13:11 -15.3 °C -15 °C 34371.3 hPa SSW 5.6 km/h 20.9 km/h 98 % 0 mm
13:16 -15.3 °C -15 °C 34371.3 hPa SSW 11.1 km/h 20.9 km/h 98 % 0 mm
13:21 -15.3 °C -15 °C 34371.3 hPa WSW 12.2 km/h 24.8 km/h 98 % 0 mm
13:26 -15.2 °C -15 °C 34371.3 hPa WSW 9.3 km/h 24.8 km/h 98 % 0 mm
13:31 -15.2 °C -15 °C 34371.3 hPa West 16.3 km/h 16.3 km/h 98 % 0 mm
13:36 -15.2 °C -15 °C 34371.3 hPa WSW 26.7 km/h 28.5 km/h 98 % 0 mm
13:41 -15.3 °C -15.6 °C 34371.3 hPa SW 16.9 km/h 28.5 km/h 98 % 0 mm
13:46 -15.3 °C -15.6 °C 34371.3 hPa WSW 20.9 km/h 27.7 km/h 98 % 0 mm
13:51 -15.3 °C -15.6 °C 34371.3 hPa SW 19.6 km/h 22 km/h 98 % 0 mm
13:56 -15.3 °C -15.6 °C 34371.3 hPa WSW 27.7 km/h 27.7 km/h 98 % 0 mm
14:01 -15.4 °C -15.6 °C 34371.3 hPa SW 22 km/h 27.7 km/h 97 % 0 mm
14:06 -15.4 °C -15.6 °C 34371.3 hPa WSW 19.2 km/h 27.7 km/h 96 % 0 mm
14:11 -15.5 °C -16.1 °C 34371.3 hPa WSW 19.2 km/h 27.7 km/h 94 % 0 mm
14:16 -15.6 °C -16.1 °C 34371.3 hPa SSW 15 km/h 27.7 km/h 94 % 0 mm
14:21 -15.6 °C -16.1 °C 34371.3 hPa WSW 24.3 km/h 24.3 km/h 94 % 0 mm
14:26 -15.7 °C -16.1 °C 34371.3 hPa SW 16.9 km/h 24.3 km/h 94 % 0 mm
14:31 -15.7 °C -16.1 °C 34371.3 hPa SSW 19.6 km/h 27.7 km/h 94 % 0 mm
14:37 -15.8 °C -16.1 °C 34371.3 hPa SW 16.9 km/h 27.7 km/h 94 % 0 mm
14:42 -15.8 °C -16.1 °C 34371.3 hPa SSW 16.3 km/h 19.6 km/h 95 % 0 mm
14:47 -15.9 °C -16.1 °C 34371.3 hPa SSW 18.7 km/h 18.7 km/h 95 % 0 mm
14:52 -15.9 °C -16.1 °C 34371.3 hPa SSW 20.3 km/h 25.4 km/h 95 % 7.62 mm
14:57 -16 °C -16.1 °C 34371.3 hPa SSW 14 km/h 25.4 km/h 96 % 7.62 mm
15:02 -16.1 °C -16.1 °C 34371.3 hPa SSW 16.3 km/h 24.8 km/h 96 % 7.62 mm
15:07 -16.1 °C -16.1 °C 34371.3 hPa SSW 15.6 km/h 24.8 km/h 96 % 12.7 mm
15:12 -16.2 °C -16.1 °C 34371.3 hPa SSW 7.6 km/h 15.6 km/h 97 % 12.7 mm
15:17 -16.2 °C -16.1 °C 34371.3 hPa South 14 km/h 23 km/h 98 % 12.7 mm
15:22 -16.3 °C -16.1 °C 34371.3 hPa South 12.7 km/h 23 km/h 98 % 20.32 mm
15:27 -16.3 °C -16.1 °C 34371.3 hPa WSW 15.6 km/h 20.9 km/h 98 % 20.32 mm
15:32 -16.3 °C -16.1 °C 34371.3 hPa SSE 10.3 km/h 20.9 km/h 98 % 20.32 mm
15:37 -16.3 °C -16.1 °C 34371.3 hPa South 15.6 km/h 23.8 km/h 98 % 33.02 mm
15:42 -16.3 °C -16.1 °C 34371.3 hPa SSW 10.3 km/h 23.8 km/h 98 % 33.02 mm
15:47 -16.3 °C -16.1 °C 34371.3 hPa SSE 6.9 km/h 27.7 km/h 98 % 33.02 mm
15:52 -16.4 °C -16.1 °C 34371.3 hPa SSE 12.7 km/h 28.5 km/h 98 % 20.32 mm
15:58 -16.4 °C -16.1 °C 34371.3 hPa SSE 15.6 km/h 28.5 km/h 98 % 33.02 mm
16:03 -16.4 °C -16.1 °C 34337.4 hPa SSE 16.9 km/h 26.7 km/h 98 % 33.02 mm
16:08 -16.4 °C -16.1 °C 34337.4 hPa South 10.3 km/h 26.7 km/h 98 % 25.4 mm
16:13 -16.4 °C -16.1 °C 34337.4 hPa SSE 33.6 km/h 33.6 km/h 98 % 25.4 mm
16:18 -16.4 °C -16.1 °C 34337.4 hPa SE 19.6 km/h 33.6 km/h 98 % 25.4 mm
16:23 -16.5 °C -16.1 °C 34337.4 hPa SE 15.6 km/h 33.6 km/h 98 % 25.4 mm
16:28 -16.4 °C -16.1 °C 34337.4 hPa SSE 15 km/h 26.7 km/h 98 % 25.4 mm
16:33 -16.5 °C -16.1 °C 34337.4 hPa SSE 20.9 km/h 20.9 km/h 98 % 25.4 mm
16:38 -16.5 °C -16.1 °C 34337.4 hPa Calm   26.7 km/h 98 % 20.32 mm
16:43 -16.5 °C -16.1 °C 34337.4 hPa SSE 19.6 km/h 26.7 km/h 98 % 25.4 mm
16:48 -16.5 °C -16.1 °C 34337.4 hPa SSE 15 km/h 22.5 km/h 98 % 25.4 mm
16:53 -16.5 °C -16.1 °C 34337.4 hPa SE 19.6 km/h 24.8 km/h 98 % 25.4 mm
16:58 -16.5 °C -16.1 °C 34337.4 hPa SSE 11.1 km/h 25.4 km/h 98 % 20.32 mm
17:03 -16.5 °C -16.1 °C 34303.6 hPa SSE 14 km/h 39.9 km/h 98 % 20.32 mm
17:08 -16.5 °C -16.1 °C 34303.6 hPa SE 22 km/h 39.9 km/h 98 % 20.32 mm
17:13 -16.6 °C -16.7 °C 34303.6 hPa SE 22 km/h 33.6 km/h 98 % 20.32 mm
17:18 -16.6 °C -16.7 °C 34303.6 hPa SE 22 km/h 22 km/h 98 % 33.02 mm
17:23 -16.6 °C -16.7 °C 34303.6 hPa SE 22 km/h 22 km/h 98 % 20.32 mm
17:28 -16.6 °C -16.7 °C 34303.6 hPa SE 22 km/h 22 km/h 98 % 20.32 mm
17:34 -16.6 °C -16.7 °C 34303.6 hPa SE 22 km/h 22 km/h 98 % 20.32 mm
17:39 -16.6 °C -16.7 °C 34303.6 hPa SE 22 km/h 22 km/h 98 % 33.02 mm
17:44 -16.6 °C -16.7 °C 34303.6 hPa SE 22 km/h 22 km/h 98 % 20.32 mm
17:49 -16.6 °C -16.7 °C 34303.6 hPa SE 22 km/h 22 km/h 98 % 20.32 mm
17:54 -16.6 °C -16.7 °C 34303.6 hPa SE 22 km/h 22 km/h 98 % 20.32 mm
17:59 -16.5 °C -16.1 °C 34303.6 hPa SE 22 km/h 22 km/h 98 % 12.7 mm
18:04 -16.5 °C -16.1 °C 34303.6 hPa SE 22 km/h 22 km/h 98 % 12.7 mm
18:09 -16.5 °C -16.1 °C 34303.6 hPa SE 22 km/h 22 km/h 98 % 12.7 mm
18:14 -16.5 °C -16.1 °C 34269.7 hPa SE 22 km/h 22 km/h 98 % 7.62 mm
18:19 -16.5 °C -16.1 °C 34269.7 hPa SE 22 km/h 22 km/h 98 % 12.7 mm
18:24 -16.5 °C -16.1 °C 34269.7 hPa SSE 22.5 km/h 22.5 km/h 98 % 12.7 mm
18:29 -16.5 °C -16.1 °C 34235.8 hPa South 19.6 km/h 24.3 km/h 98 % 12.7 mm
18:34 -16.4 °C -16.1 °C 34235.8 hPa South 19.6 km/h 24.3 km/h 98 % 12.7 mm
18:39 -16.4 °C -16.1 °C 34235.8 hPa South 19.6 km/h 19.6 km/h 98 % 20.32 mm
18:44 -16.4 °C -16.1 °C 34235.8 hPa South 19.6 km/h 19.6 km/h 98 % 20.32 mm
18:49 -16.4 °C -16.1 °C 34235.8 hPa South 19.6 km/h 19.6 km/h 98 % 20.32 mm
18:54 -16.4 °C -16.1 °C 34235.8 hPa South 19.6 km/h 19.6 km/h 98 % 20.32 mm
18:59 -16.4 °C -16.1 °C 34235.8 hPa South 19.6 km/h 19.6 km/h 98 % 20.32 mm
19:04 -16.3 °C -16.1 °C 34235.8 hPa SSE 26.7 km/h 26.7 km/h 98 % 25.4 mm
19:09 -16.3 °C -16.1 °C 34235.8 hPa SSE 26.7 km/h 26.7 km/h 98 % 25.4 mm
19:14 -16.3 °C -16.1 °C 34235.8 hPa SE 22 km/h 26.7 km/h 98 % 25.4 mm
19:19 -16.3 °C -16.1 °C 34235.8 hPa SE 9.8 km/h 26.7 km/h 98 % 20.32 mm
19:24 -16.3 °C -16.1 °C 34235.8 hPa South 20.9 km/h 26.7 km/h 98 % 20.32 mm
19:29 -16.3 °C -16.1 °C 34198.6 hPa SSE 26.2 km/h 45.1 km/h 98 % 25.4 mm
19:34 -16.3 °C -16.1 °C 34198.6 hPa SSE 32.3 km/h 45.1 km/h 98 % 25.4 mm
19:39 -16.3 °C -16.1 °C 34198.6 hPa SSE 22 km/h 44.1 km/h 98 % 20.32 mm
19:44 -16.3 °C -16.1 °C 34198.6 hPa SSW 27.7 km/h 32.3 km/h 98 % 33.02 mm
19:49 -16.3 °C -16.1 °C 34198.6 hPa SSE 12.7 km/h 37 km/h 98 % 33.02 mm
19:54 -16.3 °C -16.1 °C 34198.6 hPa SSE 22 km/h 37 km/h 98 % 38.1 mm
19:59 -16.3 °C -16.1 °C 34198.6 hPa SSE 19.2 km/h 25.4 km/h 98 % 45.72 mm
20:04 -16.3 °C -16.1 °C 34198.6 hPa SSE 19.2 km/h 22 km/h 98 % 45.72 mm
20:09 -16.3 °C -16.1 °C 34198.6 hPa SSE 9.3 km/h 19.2 km/h 98 % 45.72 mm
20:14 -16.3 °C -16.1 °C 34164.7 hPa SSE 9.3 km/h 19.2 km/h 98 % 58.42 mm
20:19 -16.2 °C -16.1 °C 34164.7 hPa SSE 9.3 km/h 9.3 km/h 98 % 63.5 mm
20:24 -16.2 °C -16.1 °C 34164.7 hPa SSE 9.3 km/h 9.3 km/h 98 % 71.12 mm
20:30 -16.2 °C -16.1 °C 34130.9 hPa SSE 9.3 km/h 9.3 km/h 98 % 71.12 mm
20:35 -16.2 °C -16.1 °C 34130.9 hPa SSE 9.3 km/h 9.3 km/h 98 % 76.2 mm
20:40 -16.2 °C -16.1 °C 34130.9 hPa SSE 9.3 km/h 9.3 km/h 98 % 83.82 mm
20:45 -16.2 °C -16.1 °C 34198.6 hPa SSE 9.3 km/h 9.3 km/h 98 % 76.2 mm
20:50 -16.1 °C -16.1 °C 34198.6 hPa SSE 9.3 km/h 9.3 km/h 98 % 96.52 mm
20:55 -16.1 °C -16.1 °C 34198.6 hPa SSE 9.3 km/h 9.3 km/h 98 % 96.52 mm
21:00 -16.1 °C -16.1 °C 34164.7 hPa SSE 9.3 km/h 9.3 km/h 98 % 104.14 mm
21:10 -16.1 °C -16.1 °C 34164.7 hPa South 12.7 km/h 12.7 km/h 98 % 109.22 mm
21:15 -16.1 °C -16.1 °C 34130.9 hPa South 12.7 km/h 12.7 km/h 98 % 109.22 mm
21:20 -16.1 °C -16.1 °C 34130.9 hPa South 12.7 km/h 12.7 km/h 98 % 104.14 mm
21:25 -16.1 °C -16.1 °C 34130.9 hPa South 12.7 km/h 12.7 km/h 98 % 109.22 mm
21:30 -16.1 °C -16.1 °C 34130.9 hPa South 12.7 km/h 12.7 km/h 98 % 116.84 mm
21:35 -16.1 °C -16.1 °C 34130.9 hPa South 12.7 km/h 12.7 km/h 98 % 109.22 mm
21:40 -16.1 °C -16.1 °C 34130.9 hPa South 12.7 km/h 12.7 km/h 98 % 109.22 mm
21:45 -16.1 °C -16.1 °C 34097 hPa South 12.7 km/h 12.7 km/h 98 % 109.22 mm
21:50 -16 °C -16.1 °C 34097 hPa South 12.7 km/h 12.7 km/h 98 % 109.22 mm
21:55 -16 °C -16.1 °C 34097 hPa South 12.7 km/h 12.7 km/h 98 % 109.22 mm
22:01 -16 °C -16.1 °C 34097 hPa South 12.7 km/h 12.7 km/h 98 % 104.14 mm
22:06 -15.9 °C -16.1 °C 34097 hPa South 12.7 km/h 12.7 km/h 98 % 91.44 mm
22:11 -15.9 °C -16.1 °C 34097 hPa South 12.7 km/h 12.7 km/h 98 % 76.2 mm
22:16 -15.9 °C -16.1 °C 34097 hPa South 12.7 km/h 12.7 km/h 98 % 71.12 mm
22:21 -15.9 °C -16.1 °C 34097 hPa South 12.7 km/h 12.7 km/h 98 % 63.5 mm
22:36 -15.8 °C -15.6 °C 34097 hPa South 12.7 km/h 12.7 km/h 98 % 38.1 mm
22:46 -15.8 °C -15.6 °C 34097 hPa South 12.7 km/h 12.7 km/h 98 % 25.4 mm
22:51 -15.8 °C -15.6 °C 34097 hPa South 12.7 km/h 12.7 km/h 98 % 25.4 mm
22:56 -15.7 °C -15.6 °C 34097 hPa South 12.7 km/h 12.7 km/h 98 % 25.4 mm
23:01 -15.7 °C -15.6 °C 34097 hPa SSW 3.4 km/h 3.4 km/h 98 % 20.32 mm
23:11 -15.7 °C -15.6 °C 34097 hPa SSW 3.4 km/h 3.4 km/h 98 % 20.32 mm
23:16 -15.6 °C -15.6 °C 34097 hPa SSW 3.4 km/h 3.4 km/h 98 % 20.32 mm
23:21 -15.5 °C -15.6 °C 34097 hPa SSW 3.4 km/h 3.4 km/h 98 % 20.32 mm
23:46 -15.3 °C -15 °C 34063.2 hPa SSW 3.4 km/h 3.4 km/h 98 % 12.7 mm
Le Gheer Warneton
Courtoisie de Weather Underground - 2.25 mb

Mise a jour : 24/02/2018 01:14:11
Généré par Cumulus 1.9.4 (1099)